EST,Max TemperatureF,Mean TemperatureF,Min TemperatureF,Max Dew PointF,MeanDew PointF,Min DewpointF,Max Humidity, Mean Humidity, Min Humidity, Max Sea Level PressureIn, Mean Sea Level PressureIn, Min Sea Level PressureIn, Max VisibilityMiles, Mean VisibilityMiles, Min VisibilityMiles, Max Wind SpeedMPH, Mean Wind SpeedMPH, Max Gust SpeedMPH,PrecipitationIn, CloudCover, Events, WindDirDegrees
2011-11-1,56,46,36,39,36,33,86,66,46,30.33,30.29,30.25,10,10,10,22,9,26,0.00,4,,31
2011-11-2,59,46,32,41,36,29,96,68,40,30.40,30.33,30.25,10,10,6,9,2,12,0.00,1,,323
2011-11-3,60,49,37,48,42,35,93,75,57,30.24,30.08,29.93,10,8,3,16,5,21,0.00,4,,226
2011-11-4,54,47,40,45,33,21,96,64,32,30.24,30.02,29.89,10,8,3,23,12,31,0.00,4,Fog,357
2011-11-5,50,41,31,28,25,20,78,55,31,30.48,30.40,30.25,10,10,9,17,6,23,0.00,1,,12
2011-11-6,55,42,29,39,32,25,85,65,44,30.54,30.46,30.38,10,9,6,16,4,23,0.00,1,Fog,247
2011-11-7,58,47,36,48,43,35,93,80,66,30.37,30.30,30.24,10,9,6,14,5,17,0.00,2,Fog,232
2011-11-8,70,56,42,49,45,41,100,74,47,30.26,30.23,30.20,10,8,4,10,2,13,0.00,0,Fog,137
2011-11-9,66,55,44,56,50,43,100,76,52,30.21,30.14,30.00,10,5,0,12,5,17,0.00,4,Fog,149
2011-11-10,66,58,50,61,55,40,100,86,71,29.99,29.76,29.58,10,7,1,23,5,28,0.04,7,Fog-Rain,177
2011-11-11,50,45,40,39,29,22,76,54,32,29.99,29.70,29.55,10,10,10,29,16,40,T,3,Rain,291
2011-11-12,55,45,35,42,33,27,80,59,38,30.13,30.08,30.01,10,10,10,28,10,36,0.00,1,,236
2011-11-13,61,52,42,51,45,38,82,70,57,30.17,30.07,29.97,10,10,10,23,13,33,0.00,5,,208
2011-11-14,63,58,53,53,50,46,86,73,60,29.96,29.87,29.75,10,10,8,23,12,31,0.00,6,,209
2011-11-15,69,63,56,54,52,48,86,69,52,29.95,29.84,29.74,10,10,9,18,7,26,0.01,7,Rain,240
2011-11-16,57,56,54,55,54,52,100,93,86,29.94,29.82,29.68,10,5,2,13,4,15,0.71,8,Rain,93
2011-11-17,55,47,39,52,34,22,93,68,43,30.01,29.83,29.73,10,9,4,25,12,32,0.08,7,Rain,326
2011-11-18,47,39,30,25,21,18,72,53,34,30.43,30.31,30.07,10,10,10,24,10,31,0.00,1,,290
2011-11-19,53,41,29,49,34,23,83,61,39,30.44,30.36,30.24,10,10,10,22,9,28,0.00,5,,222
2011-11-20,65,58,51,49,47,46,89,71,52,30.24,30.12,30.06,10,10,10,22,11,26,0.00,5,,229
2011-11-21,56,52,48,51,43,38,93,76,59,30.30,30.22,30.10,10,10,5,15,7,20,0.11,8,Rain,46
2011-11-22,50,48,46,45,41,39,93,80,66,30.37,30.27,29.98,10,9,4,21,9,26,0.71,8,Rain,85
2011-11-23,60,51,41,58,44,33,96,83,70,29.95,29.72,29.55,10,6,2,25,14,32,0.51,8,Rain,25
2011-11-24,51,43,35,39,33,30,86,65,44,30.16,30.11,29.95,10,10,10,17,7,24,0.00,2,,303
2011-11-25,62,48,33,41,36,30,92,66,39,30.17,30.12,30.08,10,10,10,15,7,20,0.00,3,,243
2011-11-26,66,53,39,46,37,31,93,61,28,30.21,30.17,30.12,10,10,6,10,4,13,0.00,5,Fog,245
2011-11-27,62,49,36,52,45,35,100,85,69,30.18,30.15,30.12,10,6,0,17,8,25,0.00,5,Fog,187
2011-11-28,68,59,50,52,51,50,93,75,56,30.16,30.12,30.09,10,10,10,18,9,26,0.00,5,,211
2011-11-29,66,59,51,61,55,50,96,82,68,30.08,29.89,29.66,10,8,1,28,12,37,0.55,8,Rain,149
2011-11-30,53,48,42,50,40,30,96,70,44,29.91,29.71,29.64,10,10,7,21,12,26,0.08,6,Rain,238